Time;durP1;ratioP1;P1;durP2;ratioP2;P2;SDS_P1;SDS_P2;PMS_P1;PMS_P2;Temp;Humidity;BMP_temperature;BMP_pressure;BME280_temperature;BME280_humidity;BME280_pressure;Samples;Min_cycle;Max_cycle;Signal;HPM_P1;HPM_P2
2023/02/05 00:01:01;;;;;;;5.33;3.40;;;-0.10;99.90;;;;;;4977686;28;20176;-87
2023/02/05 00:03:27;;;;;;;5.00;3.07;;;-0.20;99.90;;;;;;4978716;28;20236;-87
2023/02/05 00:05:53;;;;;;;5.10;3.10;;;-0.10;99.90;;;;;;4977564;28;20187;-86
2023/02/05 00:08:18;;;;;;;7.70;2.97;;;-0.10;99.90;;;;;;4977581;28;20275;-87
2023/02/05 00:10:50;;;;;;;6.60;3.20;;;-0.20;99.90;;;;;;4977711;28;20224;-87
2023/02/05 00:13:16;;;;;;;6.60;3.07;;;-0.20;99.90;;;;;;4977828;28;20191;-87
2023/02/05 00:15:48;;;;;;;4.37;2.47;;;-0.20;99.90;;;;;;4977666;28;20189;-86
2023/02/05 00:18:14;;;;;;;4.17;2.33;;;-0.20;99.90;;;;;;4977674;28;20181;-86
2023/02/05 00:20:40;;;;;;;4.33;2.90;;;-0.30;99.90;;;;;;4977346;28;20276;-87
2023/02/05 00:23:05;;;;;;;6.10;2.50;;;-0.30;99.90;;;;;;4977531;28;20187;-87
2023/02/05 00:25:32;;;;;;;6.00;2.73;;;-0.30;99.90;;;;;;4977443;28;20184;-87
2023/02/05 00:27:59;;;;;;;4.90;2.63;;;-0.30;99.90;;;;;;4977498;28;20181;-86
2023/02/05 00:30:24;;;;;;;3.97;2.43;;;-0.40;99.90;;;;;;4977075;28;20220;-87
2023/02/05 00:32:50;;;;;;;2.87;1.93;;;-0.30;99.90;;;;;;4977300;28;20181;-87
2023/02/05 00:35:16;;;;;;;5.03;2.30;;;-0.30;99.90;;;;;;4977902;28;20185;-87
2023/02/05 00:37:41;;;;;;;2.93;2.20;;;-0.40;99.90;;;;;;4977070;28;20187;-86
2023/02/05 00:40:08;;;;;;;3.07;2.40;;;-0.30;99.90;;;;;;4977838;28;20181;-87
2023/02/05 00:42:33;;;;;;;6.27;2.40;;;-0.30;99.90;;;;;;4976920;28;20271;-86
2023/02/05 00:45:00;;;;;;;4.00;2.20;;;-0.40;99.90;;;;;;4976961;28;20658;-86
2023/02/05 00:47:26;;;;;;;3.90;2.10;;;-0.40;99.90;;;;;;4977889;28;20174;-87
2023/02/05 00:49:51;;;;;;;2.63;1.80;;;-0.40;99.90;;;;;;4976655;28;20573;-87
2023/02/05 00:52:17;;;;;;;3.50;1.80;;;-0.40;99.90;;;;;;4976511;28;20591;-87
2023/02/05 00:54:43;;;;;;;2.43;1.90;;;-0.40;99.90;;;;;;4976946;28;20203;-87
2023/02/05 00:57:09;;;;;;;5.43;1.83;;;-0.50;99.90;;;;;;4977140;28;20181;-87
2023/02/05 00:59:34;;;;;;;2.50;1.60;;;-0.50;99.90;;;;;;4977040;28;20179;-86
2023/02/05 01:02:00;;;;;;;2.93;2.00;;;-0.50;99.90;;;;;;4976956;28;20208;-86
2023/02/05 01:04:26;;;;;;;5.10;1.90;;;-0.50;99.90;;;;;;4976495;28;20286;-87
2023/02/05 01:07:06;;;;;;;7.23;1.77;;;-0.50;99.90;;;;;;4976890;28;20181;-87
2023/02/05 01:09:31;;;;;;;4.10;1.60;;;-0.50;99.90;;;;;;4976360;28;20208;-87
2023/02/05 01:11:58;;;;;;;3.30;1.73;;;-0.50;99.90;;;;;;4976562;28;20187;-87
2023/02/05 01:14:24;;;;;;;4.70;1.80;;;-0.50;99.90;;;;;;4976565;28;20195;-87
2023/02/05 01:16:49;;;;;;;2.43;1.77;;;-0.50;99.90;;;;;;4977039;28;20535;-87
2023/02/05 01:19:15;;;;;;;3.93;1.90;;;-0.50;99.90;;;;;;4977735;28;20165;-89
2023/02/05 01:21:41;;;;;;;3.70;1.90;;;-0.50;99.90;;;;;;4976768;28;20181;-88
2023/02/05 01:24:07;;;;;;;3.37;1.93;;;-0.50;99.90;;;;;;4977969;28;20177;-87
2023/02/05 01:26:33;;;;;;;4.53;2.00;;;-0.50;99.90;;;;;;4977699;28;20176;-87
2023/02/05 01:28:59;;;;;;;4.17;2.17;;;-0.50;99.90;;;;;;4977092;28;20165;-87
2023/02/05 01:31:26;;;;;;;3.03;1.90;;;-0.50;99.90;;;;;;4976451;28;20647;-87
2023/02/05 01:33:52;;;;;;;3.73;1.93;;;-0.50;99.90;;;;;;4971341;28;20236;-87
2023/02/05 01:36:29;;;;;;;3.87;2.13;;;-0.50;99.90;;;;;;4956842;29;20181;-87
2023/02/05 01:38:55;;;;;;;6.27;2.23;;;-0.50;99.90;;;;;;4956941;29;20191;-87
2023/02/05 01:41:21;;;;;;;3.87;2.00;;;-0.50;99.90;;;;;;4956988;29;20186;-88
2023/02/05 01:44:14;;;;;;;5.77;1.83;;;-0.50;99.90;;;;;;4956901;29;20344;-87
2023/02/05 01:47:03;;;;;;;4.13;1.90;;;-0.50;99.90;;;;;;4957826;28;20703;-87
2023/02/05 01:49:37;;;;;;;3.67;2.07;;;-0.50;99.90;;;;;;4956309;29;20213;-87
2023/02/05 01:52:08;;;;;;;4.03;2.00;;;-0.50;99.90;;;;;;4956646;29;20189;-88
2023/02/05 01:54:37;;;;;;;4.30;2.27;;;-0.50;99.90;;;;;;4956821;29;20177;-87
2023/02/05 01:57:24;;;;;;;4.43;1.90;;;-0.50;99.90;;;;;;4956355;29;20177;-87
2023/02/05 01:59:50;;;;;;;3.03;2.03;;;-0.60;99.90;;;;;;4956687;29;20701;-87
2023/02/05 02:02:16;;;;;;;3.03;1.93;;;-0.50;99.90;;;;;;4956588;29;20203;-89
2023/02/05 02:04:45;;;;;;;3.27;2.13;;;-0.60;99.90;;;;;;4969079;28;20311;-88
2023/02/05 02:07:14;;;;;;;4.20;2.50;;;-0.60;99.90;;;;;;4975988;28;20176;-88
2023/02/05 02:09:42;;;;;;;3.47;2.00;;;-0.60;99.90;;;;;;4975837;28;20201;-87
2023/02/05 02:12:11;;;;;;;4.47;2.00;;;-0.60;99.90;;;;;;4975583;28;20200;-87
2023/02/05 02:14:39;;;;;;;6.57;2.53;;;-0.60;99.90;;;;;;4975600;28;20574;-87
2023/02/05 02:17:06;;;;;;;4.40;2.00;;;-0.60;99.90;;;;;;4975449;28;20190;-88
2023/02/05 02:19:44;;;;;;;3.40;2.07;;;-0.60;99.90;;;;;;4975860;28;20173;-89
2023/02/05 02:22:45;;;;;;;6.93;2.63;;;-0.60;99.90;;;;;;4975765;28;20183;-88
2023/02/05 02:25:36;;;;;;;4.30;2.30;;;-0.60;99.90;;;;;;4975521;28;20630;-90
2023/02/05 02:28:10;;;;;;;4.10;1.97;;;-0.60;99.90;;;;;;4976314;28;20169;-88
2023/02/05 02:30:47;;;;;;;4.60;2.03;;;-0.60;99.90;;;;;;4975247;28;20213;-90
2023/02/05 02:33:19;;;;;;;2.60;1.97;;;-0.70;99.90;;;;;;4975427;28;20250;-88
2023/02/05 02:35:51;;;;;;;2.83;2.27;;;-0.60;99.90;;;;;;4955739;28;20187;-87
2023/02/05 02:38:50;;;;;;;4.00;2.13;;;-0.70;99.90;;;;;;4972003;28;20336;-88
2023/02/05 02:41:36;;;;;;;4.13;2.30;;;-0.60;99.90;;;;;;4971858;28;20177;-88
2023/02/05 02:44:11;;;;;;;2.87;2.03;;;-0.60;99.90;;;;;;4971814;28;20512;-89
2023/02/05 02:47:21;;;;;;;2.90;2.10;;;-0.60;99.90;;;;;;4972227;28;20215;-88
2023/02/05 02:49:57;;;;;;;3.67;1.90;;;-0.70;99.90;;;;;;4963742;28;20221;-89
2023/02/05 02:52:25;;;;;;;3.23;2.30;;;-0.70;99.90;;;;;;4972009;28;20584;-87
2023/02/05 02:54:56;;;;;;;3.43;2.20;;;-0.70;99.90;;;;;;4972254;28;20216;-88
2023/02/05 02:57:42;;;;;;;3.47;2.20;;;-0.70;99.90;;;;;;4972296;28;20189;-88
2023/02/05 03:00:19;;;;;;;5.43;2.13;;;-0.70;99.90;;;;;;4957198;28;20274;-88
2023/02/05 03:02:46;;;;;;;4.13;2.40;;;-0.70;99.90;;;;;;4971977;28;20247;-88
2023/02/05 03:05:17;;;;;;;4.43;2.50;;;-0.70;99.90;;;;;;4987447;28;20219;-88
2023/02/05 03:07:51;;;;;;;2.97;2.20;;;-0.80;99.90;;;;;;4975242;28;20169;-89
2023/02/05 03:10:41;;;;;;;2.73;2.20;;;-0.70;99.90;;;;;;4974991;28;20753;-88
2023/02/05 03:13:09;;;;;;;2.53;2.07;;;-0.80;99.90;;;;;;4974749;28;20177;-88
2023/02/05 03:15:37;;;;;;;3.47;2.37;;;-0.80;99.90;;;;;;4976102;28;20192;-89
2023/02/05 03:18:03;;;;;;;5.60;2.50;;;-0.80;99.90;;;;;;4975104;28;20176;-90
2023/02/05 03:20:33;;;;;;;3.70;1.97;;;-0.70;99.90;;;;;;4974575;28;20600;-88
2023/02/05 03:22:59;;;;;;;3.83;2.30;;;-0.80;99.90;;;;;;4974739;28;20239;-88
2023/02/05 03:25:29;;;;;;;6.40;2.17;;;-0.80;99.90;;;;;;4974698;28;20300;-89
2023/02/05 03:27:57;;;;;;;5.33;2.33;;;-0.80;99.90;;;;;;4974770;28;20186;-90
2023/02/05 03:30:29;;;;;;;2.77;2.00;;;-0.80;99.90;;;;;;4975089;28;20227;-89
2023/02/05 03:33:33;;;;;;;5.57;2.40;;;-0.80;99.90;;;;;;4977618;28;20623;-88
2023/02/05 03:36:08;;;;;;;4.47;2.50;;;-0.80;99.90;;;;;;4938735;29;20220;-88
2023/02/05 03:39:13;;;;;;;3.93;2.40;;;-0.80;99.90;;;;;;4958836;28;20177;-88
2023/02/05 03:42:06;;;;;;;6.50;2.37;;;-0.80;99.90;;;;;;4975359;28;20212;-88
2023/02/05 03:44:39;;;;;;;4.67;2.43;;;-0.80;99.90;;;;;;4975270;28;20613;-88
2023/02/05 03:47:23;;;;;;;4.73;2.20;;;-0.80;99.90;;;;;;4974762;28;20169;-87
2023/02/05 03:49:58;;;;;;;5.37;2.60;;;-0.80;99.90;;;;;;4974636;28;20293;-88
2023/02/05 03:52:32;;;;;;;5.20;2.30;;;-0.80;99.90;;;;;;4975006;28;20190;-87
2023/02/05 03:55:00;;;;;;;3.57;2.40;;;-0.80;99.90;;;;;;4959220;28;20184;-89
2023/02/05 03:57:36;;;;;;;3.37;2.30;;;-0.80;99.90;;;;;;4975135;28;20180;-88
2023/02/05 04:00:04;;;;;;;3.80;2.60;;;-0.90;99.90;;;;;;4958720;28;20181;-88
2023/02/05 04:02:30;;;;;;;3.30;2.03;;;-0.80;99.90;;;;;;4958767;28;20245;-88
2023/02/05 04:04:55;;;;;;;3.93;2.20;;;-0.90;99.90;;;;;;4971983;28;20655;-87
2023/02/05 04:07:26;;;;;;;6.47;2.30;;;-0.90;99.90;;;;;;4977841;28;20205;-88
2023/02/05 04:09:52;;;;;;;5.17;2.63;;;-0.90;99.90;;;;;;4977721;28;20211;-88
2023/02/05 04:12:17;;;;;;;5.33;2.43;;;-0.90;99.90;;;;;;4977430;28;20557;-88
2023/02/05 04:14:43;;;;;;;4.23;2.80;;;-0.90;99.90;;;;;;4977577;28;20184;-88
2023/02/05 04:17:10;;;;;;;3.40;2.60;;;-0.90;99.90;;;;;;4977719;28;20187;-88
2023/02/05 04:19:36;;;;;;;5.27;2.50;;;-0.90;99.90;;;;;;4977674;28;20237;-88
2023/02/05 04:22:02;;;;;;;7.20;2.57;;;-0.90;99.90;;;;;;4977927;28;20626;-89
2023/02/05 04:24:28;;;;;;;4.30;2.30;;;-0.90;99.90;;;;;;4977462;28;20185;-88
2023/02/05 04:26:54;;;;;;;6.10;2.53;;;-0.90;99.90;;;;;;4977785;28;20191;-88
2023/02/05 04:29:41;;;;;;;4.07;2.30;;;-0.90;99.90;;;;;;4977338;28;20522;-88
2023/02/05 04:32:07;;;;;;;3.10;2.30;;;-0.90;99.90;;;;;;4977572;28;20548;-88
2023/02/05 04:34:32;;;;;;;4.83;2.27;;;-0.90;99.90;;;;;;4977254;28;20185;-88
2023/02/05 04:36:58;;;;;;;3.50;2.50;;;-0.90;99.90;;;;;;4978830;28;20200;-88
2023/02/05 04:39:26;;;;;;;4.10;2.60;;;-0.80;99.90;;;;;;4977596;28;20188;-88
2023/02/05 04:41:52;;;;;;;4.80;2.37;;;-0.90;99.90;;;;;;4977436;28;20179;-88
2023/02/05 04:44:18;;;;;;;4.80;2.90;;;-0.80;99.90;;;;;;4977146;28;20260;-88
2023/02/05 04:46:43;;;;;;;6.03;2.70;;;-0.80;99.90;;;;;;4977377;28;20227;-88
2023/02/05 04:49:16;;;;;;;4.53;2.73;;;-0.80;99.90;;;;;;4977282;28;20212;-88
2023/02/05 04:51:42;;;;;;;5.50;2.50;;;-0.80;99.90;;;;;;4976821;28;20184;-88
2023/02/05 04:54:08;;;;;;;6.13;3.40;;;-0.80;99.90;;;;;;4977475;28;20702;-88
2023/02/05 04:56:33;;;;;;;5.13;2.73;;;-0.90;99.90;;;;;;4977066;28;20271;-88
2023/02/05 04:59:00;;;;;;;4.87;2.70;;;-0.80;99.90;;;;;;4977301;28;20177;-88
2023/02/05 05:01:26;;;;;;;5.93;2.83;;;-0.80;99.90;;;;;;4977472;28;20267;-88
2023/02/05 05:03:51;;;;;;;4.90;2.80;;;-0.80;99.90;;;;;;4976424;28;20263;-88
2023/02/05 05:06:18;;;;;;;3.13;2.23;;;-0.80;99.90;;;;;;4977045;28;20538;-88
2023/02/05 05:08:44;;;;;;;5.70;2.73;;;-0.80;99.90;;;;;;4976290;28;20200;-88
2023/02/05 05:11:18;;;;;;;4.20;2.50;;;-0.80;99.90;;;;;;4976589;28;20212;-88
2023/02/05 05:13:44;;;;;;;4.47;2.63;;;-0.70;99.90;;;;;;4976756;28;20204;-88
2023/02/05 05:16:11;;;;;;;3.53;2.50;;;-0.80;99.90;;;;;;4976747;28;20231;-89
2023/02/05 05:18:39;;;;;;;5.13;2.80;;;-0.70;99.90;;;;;;4975941;28;20246;-88
2023/02/05 05:21:05;;;;;;;5.50;2.67;;;-0.70;99.90;;;;;;4976949;28;20223;-88
2023/02/05 05:23:32;;;;;;;4.20;2.80;;;-0.70;99.90;;;;;;4976386;28;20263;-89
2023/02/05 05:25:57;;;;;;;3.47;2.33;;;-0.70;99.90;;;;;;4976496;28;20736;-89
2023/02/05 05:28:24;;;;;;;4.83;2.80;;;-0.70;99.90;;;;;;4976501;28;20275;-88
2023/02/05 05:30:50;;;;;;;6.03;2.83;;;-0.70;99.90;;;;;;4975777;28;20212;-88
2023/02/05 05:33:16;;;;;;;4.77;2.90;;;-0.60;99.90;;;;;;4976519;28;20196;-88
2023/02/05 05:35:42;;;;;;;4.50;2.37;;;-0.60;99.90;;;;;;4975950;28;20181;-89
2023/02/05 05:38:08;;;;;;;5.40;2.47;;;-0.60;99.90;;;;;;4975742;28;20620;-89
2023/02/05 05:46:05;;;;;;;4.97;2.70;;;-0.60;99.90;;;;;;4977666;28;20288;-89
2023/02/05 05:48:36;;;;;;;6.27;2.80;;;-0.50;99.90;;;;;;4975837;28;20203;-88
2023/02/05 05:51:02;;;;;;;5.27;2.63;;;-0.50;99.90;;;;;;4975936;28;20204;-88
2023/02/05 05:53:28;;;;;;;3.43;2.60;;;-0.50;99.90;;;;;;4975821;28;20191;-89
2023/02/05 05:55:53;;;;;;;4.33;2.60;;;-0.50;99.90;;;;;;4975474;28;20188;-88
2023/02/05 05:58:20;;;;;;;4.63;2.70;;;-0.50;99.90;;;;;;4975833;28;20623;-89
2023/02/05 06:00:46;;;;;;;5.40;2.77;;;-0.50;99.90;;;;;;4975892;28;20220;-88
2023/02/05 06:03:12;;;;;;;3.63;2.70;;;-0.50;99.90;;;;;;4975905;28;20274;-89
2023/02/05 06:05:37;;;;;;;3.43;2.50;;;-0.40;99.90;;;;;;4975795;28;20188;-89
2023/02/05 06:08:03;;;;;;;4.43;3.03;;;-0.40;99.90;;;;;;4975832;28;20180;-89
2023/02/05 06:10:31;;;;;;;5.10;2.90;;;-0.40;99.90;;;;;;4975619;28;20250;-89
2023/02/05 06:12:57;;;;;;;4.37;2.90;;;-0.40;99.90;;;;;;4975562;28;20604;-88
2023/02/05 06:15:25;;;;;;;3.30;2.53;;;-0.40;99.90;;;;;;4975810;28;20208;-89
2023/02/05 06:17:54;;;;;;;4.10;2.40;;;-0.40;99.90;;;;;;4975705;28;20275;-89
2023/02/05 06:20:20;;;;;;;5.90;3.17;;;-0.30;99.90;;;;;;4974814;28;20185;-89
2023/02/05 06:22:46;;;;;;;3.97;2.80;;;-0.30;99.90;;;;;;4975498;28;20181;-88
2023/02/05 06:25:11;;;;;;;5.47;2.67;;;-0.30;99.90;;;;;;4975789;28;20650;-89
2023/02/05 06:27:37;;;;;;;4.33;2.87;;;-0.30;99.90;;;;;;4975310;28;20666;-89
2023/02/05 06:30:04;;;;;;;3.77;2.43;;;-0.30;99.90;;;;;;4964957;28;20280;-89
2023/02/05 06:32:30;;;;;;;5.27;2.80;;;-0.30;99.90;;;;;;4955674;29;20623;-89
2023/02/05 06:34:56;;;;;;;4.67;2.17;;;-0.30;99.90;;;;;;4955522;29;20189;-89
2023/02/05 06:37:24;;;;;;;4.17;2.40;;;-0.30;99.90;;;;;;4956032;29;20177;-89
2023/02/05 06:39:50;;;;;;;4.37;2.60;;;-0.30;99.90;;;;;;4955839;29;20188;-89
2023/02/05 06:42:18;;;;;;;4.97;2.67;;;-0.20;99.90;;;;;;4956158;29;20299;-89
2023/02/05 06:44:44;;;;;;;5.83;2.60;;;-0.20;99.90;;;;;;4955992;29;20181;-89
2023/02/05 06:47:09;;;;;;;5.73;2.53;;;-0.20;99.90;;;;;;4955932;29;20185;-88
2023/02/05 06:49:35;;;;;;;4.57;2.67;;;-0.20;99.90;;;;;;4955321;29;20296;-89
2023/02/05 06:52:01;;;;;;;3.57;2.40;;;-0.20;99.90;;;;;;4955523;29;20244;-89
2023/02/05 06:54:27;;;;;;;6.40;2.63;;;-0.10;99.90;;;;;;4955799;29;20368;-89
2023/02/05 06:56:52;;;;;;;3.80;2.47;;;-0.20;99.90;;;;;;4955709;29;20639;-89
2023/02/05 06:59:18;;;;;;;4.50;2.77;;;-0.20;99.90;;;;;;4960437;28;20267;-89
2023/02/05 07:01:44;;;;;;;3.97;2.63;;;-0.10;99.90;;;;;;4974947;28;20203;-89
2023/02/05 07:04:09;;;;;;;3.77;2.43;;;-0.10;99.90;;;;;;4975536;28;20232;-89
2023/02/05 07:06:35;;;;;;;4.43;2.50;;;-0.10;99.90;;;;;;4977393;28;20185;-90
2023/02/05 07:09:05;;;;;;;3.93;2.43;;;-0.10;99.90;;;;;;4979022;28;20184;-89
2023/02/05 07:11:31;;;;;;;4.43;2.33;;;-0.10;99.90;;;;;;4979030;28;20185;-90
2023/02/05 07:14:01;;;;;;;2.90;2.30;;;-0.10;99.90;;;;;;4978895;28;20293;-89
2023/02/05 07:16:27;;;;;;;4.57;2.50;;;0.00;99.90;;;;;;4978888;28;20246;-89
2023/02/05 07:18:53;;;;;;;4.73;2.53;;;0.00;99.90;;;;;;4978793;28;20210;-89
2023/02/05 07:21:19;;;;;;;3.07;2.00;;;0.00;99.90;;;;;;4979182;28;20223;-89
2023/02/05 07:23:45;;;;;;;5.37;2.50;;;0.00;99.90;;;;;;4978900;28;20192;-89
2023/02/05 07:26:13;;;;;;;4.63;2.27;;;0.00;99.90;;;;;;4979753;28;20257;-90
2023/02/05 07:28:40;;;;;;;4.13;2.50;;;0.00;99.90;;;;;;4979897;28;20173;-90
2023/02/05 07:31:09;;;;;;;3.10;2.20;;;0.00;99.90;;;;;;4978427;28;20217;-89
2023/02/05 07:33:37;;;;;;;3.83;2.50;;;0.10;99.90;;;;;;4978764;28;20267;-91
2023/02/05 07:36:05;;;;;;;3.93;2.80;;;0.10;99.90;;;;;;4978520;28;20185;-90
2023/02/05 07:38:32;;;;;;;4.33;2.77;;;0.10;99.90;;;;;;4978796;28;20615;-90
2023/02/05 07:41:01;;;;;;;5.30;2.30;;;0.00;99.90;;;;;;4978599;28;20187;-90
2023/02/05 07:43:27;;;;;;;3.90;2.50;;;0.10;99.90;;;;;;4978525;28;20188;-89
2023/02/05 07:45:57;;;;;;;4.97;2.40;;;0.10;99.90;;;;;;4978275;28;20506;-90
2023/02/05 07:48:22;;;;;;;4.73;2.53;;;0.10;99.90;;;;;;4977978;28;20184;-89
2023/02/05 07:50:49;;;;;;;3.87;2.60;;;0.10;99.90;;;;;;4977319;28;20219;-89
2023/02/05 07:53:19;;;;;;;5.17;2.90;;;0.10;99.90;;;;;;4978435;28;20263;-90
2023/02/05 07:55:44;;;;;;;3.30;2.40;;;0.20;99.90;;;;;;4978221;28;20177;-89
2023/02/05 07:58:10;;;;;;;5.17;2.53;;;0.20;99.90;;;;;;4977809;28;20176;-89
2023/02/05 08:00:37;;;;;;;3.13;2.43;;;0.20;99.90;;;;;;4977833;28;20192;-89
2023/02/05 08:03:03;;;;;;;5.20;2.40;;;0.20;99.90;;;;;;4977861;28;20224;-89
2023/02/05 08:05:28;;;;;;;4.77;3.10;;;0.30;99.90;;;;;;4977730;28;20189;-89
2023/02/05 08:07:54;;;;;;;4.43;2.87;;;0.20;99.90;;;;;;4979082;28;20278;-89
2023/02/05 08:10:23;;;;;;;6.30;3.00;;;0.20;99.90;;;;;;4977726;28;20224;-90
2023/02/05 08:12:49;;;;;;;4.53;3.17;;;0.30;99.90;;;;;;4978011;28;20173;-90
2023/02/05 08:15:14;;;;;;;6.57;3.10;;;0.30;99.90;;;;;;4977972;28;20195;-90
2023/02/05 08:17:40;;;;;;;5.13;3.10;;;0.30;99.90;;;;;;4977417;28;20267;-90
2023/02/05 08:20:08;;;;;;;4.97;2.70;;;0.30;99.90;;;;;;4977405;28;20212;-91
2023/02/05 08:22:36;;;;;;;5.00;3.50;;;0.30;99.90;;;;;;4977675;28;20195;-89
2023/02/05 08:25:03;;;;;;;5.47;3.03;;;0.30;99.90;;;;;;4977743;28;20184;-89
2023/02/05 08:27:31;;;;;;;4.10;2.90;;;0.40;99.90;;;;;;4977708;28;20622;-90
2023/02/05 08:29:58;;;;;;;4.70;2.87;;;0.40;99.90;;;;;;4977468;28;20211;-90
2023/02/05 08:32:23;;;;;;;5.77;3.03;;;0.40;99.90;;;;;;4977696;28;20181;-89
2023/02/05 08:34:49;;;;;;;3.90;2.60;;;0.40;99.90;;;;;;4977515;28;20268;-90
2023/02/05 08:37:15;;;;;;;4.43;2.90;;;0.50;99.90;;;;;;4977482;28;20181;-91
2023/02/05 08:39:40;;;;;;;4.70;3.20;;;0.50;99.90;;;;;;4977103;28;20188;-92
2023/02/05 08:42:06;;;;;;;7.27;3.17;;;0.50;99.90;;;;;;4977287;28;20187;-90
2023/02/05 08:44:32;;;;;;;6.93;3.40;;;0.60;99.90;;;;;;4977549;28;20239;-89
2023/02/05 08:46:58;;;;;;;5.03;3.13;;;0.60;99.90;;;;;;4978586;28;20193;-89
2023/02/05 08:49:24;;;;;;;6.30;3.40;;;0.60;99.90;;;;;;4976733;28;20217;-91
2023/02/05 08:51:51;;;;;;;7.83;3.23;;;0.60;99.90;;;;;;4977086;28;20189;-91
2023/02/05 08:54:16;;;;;;;10.60;3.67;;;0.60;99.90;;;;;;4977009;28;20182;-89
2023/02/05 08:56:44;;;;;;;6.13;3.50;;;0.70;99.90;;;;;;4976959;28;20247;-91
2023/02/05 08:59:10;;;;;;;5.20;3.50;;;0.70;99.90;;;;;;4978633;28;20184;-93
2023/02/05 09:01:41;;;;;;;5.17;3.47;;;0.70;99.90;;;;;;4977563;28;20192;-90
2023/02/05 09:04:18;;;;;;;6.53;3.40;;;0.70;99.90;;;;;;4976643;28;20298;-89
2023/02/05 09:06:44;;;;;;;6.80;3.47;;;0.80;99.90;;;;;;4976568;28;20203;-87
2023/02/05 09:09:10;;;;;;;7.80;3.50;;;0.80;99.90;;;;;;4976783;28;20513;-92
2023/02/05 09:11:46;;;;;;;7.97;3.50;;;0.80;99.90;;;;;;4976504;28;20223;-90
2023/02/05 09:14:13;;;;;;;4.97;3.30;;;0.90;99.90;;;;;;4992924;28;20172;-92
2023/02/05 09:16:40;;;;;;;4.23;3.27;;;0.90;99.90;;;;;;4976643;28;20180;-91
2023/02/05 09:19:06;;;;;;;6.57;3.43;;;0.90;99.90;;;;;;4992362;28;20233;-89
2023/02/05 09:21:33;;;;;;;7.50;3.70;;;0.90;99.90;;;;;;4977107;28;20510;-89
2023/02/05 09:23:59;;;;;;;5.80;3.33;;;0.90;99.90;;;;;;4977545;28;20172;-88
2023/02/05 09:26:25;;;;;;;5.07;3.23;;;1.00;99.90;;;;;;4976416;28;20240;-88
2023/02/05 09:28:51;;;;;;;6.90;3.70;;;1.00;99.90;;;;;;4975802;28;20180;-89
2023/02/05 09:31:20;;;;;;;6.07;3.50;;;1.00;99.90;;;;;;4975523;28;20736;-88
2023/02/05 09:33:46;;;;;;;5.27;3.03;;;1.10;99.90;;;;;;4975795;28;20196;-88
2023/02/05 09:36:22;;;;;;;8.43;4.00;;;1.10;99.90;;;;;;4976802;28;20212;-92
2023/02/05 09:38:52;;;;;;;4.27;3.50;;;1.10;99.90;;;;;;4969359;28;20183;-87
2023/02/05 09:41:41;;;;;;;5.63;3.50;;;1.20;99.90;;;;;;4974783;28;20623;-89
2023/02/05 09:44:23;;;;;;;6.13;3.33;;;1.20;99.90;;;;;;4976526;28;20175;-88
2023/02/05 09:47:28;;;;;;;4.67;3.57;;;1.20;99.90;;;;;;4975083;28;20815;-87
2023/02/05 09:50:15;;;;;;;7.50;3.50;;;1.20;99.90;;;;;;4971659;28;20306;-88
2023/02/05 09:52:49;;;;;;;3.77;3.10;;;1.30;99.90;;;;;;4975347;28;20622;-86
2023/02/05 09:55:23;;;;;;;3.70;3.07;;;1.30;99.90;;;;;;4969121;28;20175;-86
2023/02/05 09:58:01;;;;;;;4.43;3.17;;;1.40;99.90;;;;;;4974855;28;20570;-86
2023/02/05 10:00:44;;;;;;;5.97;3.23;;;1.40;99.90;;;;;;4975811;28;20185;-86
2023/02/05 10:03:22;;;;;;;5.17;3.13;;;1.40;99.90;;;;;;4977019;28;20253;-86
2023/02/05 10:05:59;;;;;;;7.23;3.60;;;1.40;99.90;;;;;;4978497;28;20168;-86
2023/02/05 10:08:28;;;;;;;4.50;3.33;;;1.50;99.90;;;;;;4977389;28;20237;-86
2023/02/05 10:10:56;;;;;;;4.97;3.50;;;1.50;99.90;;;;;;4977274;28;20212;-86
2023/02/05 10:13:43;;;;;;;5.07;3.40;;;1.50;99.90;;;;;;4976495;28;20235;-86
2023/02/05 10:16:30;;;;;;;5.77;3.73;;;1.60;99.90;;;;;;4976278;28;20626;-86
2023/02/05 10:19:21;;;;;;;6.37;3.30;;;1.60;99.90;;;;;;4971440;28;20616;-85
2023/02/05 10:22:10;;;;;;;6.63;3.33;;;1.60;99.90;;;;;;4975185;28;20184;-87
2023/02/05 10:25:15;;;;;;;4.13;2.97;;;1.70;99.90;;;;;;4993369;28;20687;-88
2023/02/05 10:27:55;;;;;;;4.77;3.27;;;1.70;99.90;;;;;;4975020;28;20224;-87
2023/02/05 10:30:42;;;;;;;6.23;3.33;;;1.70;99.90;;;;;;4975603;28;20211;-86
2023/02/05 10:33:34;;;;;;;7.13;3.50;;;1.80;99.90;;;;;;4976817;28;20180;-86
2023/02/05 10:36:05;;;;;;;3.77;2.67;;;1.80;99.90;;;;;;4975223;28;20687;-87
2023/02/05 10:38:38;;;;;;;4.50;3.00;;;1.80;99.90;;;;;;4976168;28;20172;-86
2023/02/05 10:41:11;;;;;;;4.07;3.03;;;1.80;99.90;;;;;;4989886;28;20181;-85
2023/02/05 10:44:13;;;;;;;4.33;3.17;;;1.80;99.90;;;;;;4971932;28;20207;-86
2023/02/05 10:46:41;;;;;;;6.33;3.30;;;1.90;99.90;;;;;;4973845;28;20199;-85
2023/02/05 10:49:17;;;;;;;5.53;3.10;;;1.90;99.90;;;;;;4973388;28;20188;-85
2023/02/05 10:51:44;;;;;;;5.23;3.10;;;1.90;99.90;;;;;;4972073;28;20227;-86
2023/02/05 10:54:27;;;;;;;6.03;3.37;;;1.90;99.90;;;;;;4969761;28;20342;-89
2023/02/05 10:56:55;;;;;;;3.83;2.90;;;1.90;99.90;;;;;;4973660;28;20192;-85
2023/02/05 10:59:28;;;;;;;5.10;3.30;;;2.00;99.90;;;;;;4974221;28;20184;-86
2023/02/05 11:02:08;;;;;;;4.37;3.10;;;2.00;99.90;;;;;;4971163;28;20196;-87
2023/02/05 11:04:51;;;;;;;7.97;3.43;;;2.00;99.90;;;;;;4967644;28;20280;-85
2023/02/05 11:07:22;;;;;;;5.43;3.20;;;2.10;99.90;;;;;;4971206;28;20181;-86
2023/02/05 11:09:48;;;;;;;4.90;3.17;;;2.20;99.90;;;;;;4970865;28;20283;-85
2023/02/05 11:12:27;;;;;;;3.93;3.03;;;2.20;99.90;;;;;;4975615;28;20240;-85
2023/02/05 11:14:59;;;;;;;5.10;3.20;;;2.20;99.90;;;;;;4974009;28;20181;-84
2023/02/05 11:17:33;;;;;;;6.67;3.57;;;2.20;99.90;;;;;;4975537;28;20180;-88
2023/02/05 11:20:12;;;;;;;4.67;3.50;;;2.30;99.90;;;;;;4972664;28;20177;-86
2023/02/05 11:22:39;;;;;;;7.27;3.37;;;2.30;99.90;;;;;;4990508;28;20184;-85
2023/02/05 11:25:14;;;;;;;6.20;4.13;;;2.30;99.90;;;;;;4974213;28;20180;-85
2023/02/05 11:27:40;;;;;;;6.17;3.57;;;2.40;99.90;;;;;;4972787;28;20571;-86
2023/02/05 11:30:31;;;;;;;5.50;3.50;;;2.40;99.90;;;;;;4970006;28;20292;-85
2023/02/05 11:33:16;;;;;;;4.17;2.90;;;2.40;99.90;;;;;;4970789;28;20617;-85
2023/02/05 11:35:55;;;;;;;4.40;3.10;;;2.50;99.90;;;;;;4986624;28;20172;-85
2023/02/05 11:38:28;;;;;;;7.67;4.00;;;2.50;99.90;;;;;;4969816;28;20953;-85
2023/02/05 11:40:59;;;;;;;5.60;3.73;;;2.60;99.90;;;;;;4984754;28;20184;-84
2023/02/05 11:43:38;;;;;;;4.37;3.30;;;2.60;99.90;;;;;;4973753;28;20534;-86
2023/02/05 11:46:08;;;;;;;12.80;5.53;;;2.60;99.90;;;;;;4971517;28;20620;-86
2023/02/05 11:48:42;;;;;;;7.33;3.80;;;2.60;99.90;;;;;;4973067;28;20189;-87
2023/02/05 11:51:14;;;;;;;5.77;3.23;;;2.60;99.90;;;;;;4989271;28;20220;-85
2023/02/05 11:53:57;;;;;;;6.97;4.00;;;2.60;99.90;;;;;;4977144;28;20176;-86
2023/02/05 11:56:24;;;;;;;5.97;4.27;;;2.70;99.90;;;;;;4976463;28;20181;-84
2023/02/05 11:59:02;;;;;;;10.53;6.10;;;2.70;99.90;;;;;;4967214;28;20647;-86
2023/02/05 12:01:34;;;;;;;6.60;3.97;;;2.70;99.90;;;;;;4970754;28;20220;-87
2023/02/05 12:04:03;;;;;;;6.13;3.87;;;2.70;99.90;;;;;;4972886;28;20897;-87
2023/02/05 12:06:43;;;;;;;11.50;6.20;;;2.70;99.90;;;;;;4966114;28;20188;-87
2023/02/05 12:09:13;;;;;;;7.03;5.33;;;2.70;99.90;;;;;;4967512;28;20184;-86
2023/02/05 12:12:02;;;;;;;19.87;10.43;;;2.70;99.90;;;;;;4987996;28;20283;-87
2023/02/05 12:14:40;;;;;;;6.30;4.33;;;2.70;99.90;;;;;;4953395;28;20188;-85
2023/02/05 12:17:38;;;;;;;8.80;3.27;;;2.80;99.90;;;;;;4987562;28;20195;-85
2023/02/05 12:20:37;;;;;;;6.10;4.23;;;2.80;99.90;;;;;;4973671;28;20172;-84
2023/02/05 12:23:27;;;;;;;6.10;4.03;;;2.90;99.90;;;;;;4973684;28;20243;-87
2023/02/05 12:26:25;;;;;;;6.63;3.30;;;2.80;99.90;;;;;;4977787;28;20509;-86
2023/02/05 12:29:13;;;;;;;6.80;3.70;;;2.90;99.90;;;;;;4974115;28;20176;-86
2023/02/05 12:31:50;;;;;;;7.53;4.37;;;3.00;99.90;;;;;;4971316;28;20678;-86
2023/02/05 12:34:42;;;;;;;6.30;4.40;;;3.00;99.90;;;;;;4974537;28;20180;-85
2023/02/05 12:37:25;;;;;;;6.87;4.60;;;3.00;99.90;;;;;;4974738;28;20192;-87
2023/02/05 12:40:00;;;;;;;5.70;4.37;;;2.90;99.90;;;;;;4974331;28;20184;-86
2023/02/05 12:42:43;;;;;;;9.40;4.50;;;2.90;99.90;;;;;;4975191;28;20188;-86
2023/02/05 12:45:47;;;;;;;6.87;4.50;;;3.00;99.90;;;;;;4971987;28;20180;-85
2023/02/05 12:48:41;;;;;;;5.23;3.70;;;3.00;99.90;;;;;;4973298;28;20180;-85
2023/02/05 12:51:25;;;;;;;7.43;3.67;;;3.00;99.90;;;;;;4972612;28;20200;-87
2023/02/05 12:54:20;;;;;;;6.73;3.60;;;3.00;99.90;;;;;;4970462;28;20251;-86
2023/02/05 12:57:07;;;;;;;8.70;4.37;;;3.00;99.90;;;;;;4990999;28;20188;-85
2023/02/05 12:59:47;;;;;;;7.07;3.40;;;3.00;99.90;;;;;;4975219;28;20180;-83
2023/02/05 13:02:28;;;;;;;7.27;4.00;;;3.00;99.90;;;;;;4990977;28;20184;-85
2023/02/05 13:05:11;;;;;;;10.97;4.47;;;3.00;99.90;;;;;;4986493;28;20215;-87
2023/02/05 13:07:44;;;;;;;5.97;3.70;;;2.90;99.90;;;;;;4988254;28;20185;-87
2023/02/05 13:10:27;;;;;;;5.57;3.50;;;2.90;99.90;;;;;;4975241;28;20203;-87
2023/02/05 13:12:59;;;;;;;5.57;3.90;;;2.90;99.90;;;;;;4974588;28;20184;-84
2023/02/05 13:15:40;;;;;;;5.17;3.63;;;3.10;99.90;;;;;;4971191;28;20529;-87
2023/02/05 13:18:14;;;;;;;5.17;3.20;;;3.30;99.90;;;;;;4974528;28;20177;-86
2023/02/05 13:29:17;;;;;;;11.60;3.97;;;3.50;99.90;;;;;;4975486;28;20195;-85